Time;durP1;ratioP1;P1;durP2;ratioP2;P2;SDS_P1;SDS_P2;PMS_P1;PMS_P2;Temp;Humidity;BMP_temperature;BMP_pressure;BME280_temperature;BME280_humidity;BME280_pressure;Samples;Min_cycle;Max_cycle;Signal;HPM_P1;HPM_P2
2023/12/04 00:00:36;;;;;;;15.43;8.33;;;;;;;;;;4975779;28;20257;-67
2023/12/04 00:03:02;;;;;;;15.87;8.33;;;;;;;;;;4975978;28;20219;-67
2023/12/04 00:05:27;;;;;;;14.73;8.10;;;;;;;;;;4970791;28;20195;-67
2023/12/04 00:07:52;;;;;;;16.17;8.47;;;;;;;;;;4971807;28;20196;-67
2023/12/04 00:10:17;;;;;;;17.80;9.10;;;;;;;;;;4978131;28;20187;-67
2023/12/04 00:12:42;;;;;;;17.00;8.20;;;;;;;;;;4964492;28;20271;-67
2023/12/04 00:15:08;;;;;;;13.40;7.83;;;;;;;;;;4965303;28;20969;-67
2023/12/04 00:17:33;;;;;;;16.27;7.83;;;;;;;;;;4977257;28;20773;-67
2023/12/04 00:19:58;;;;;;;15.63;7.73;;;;;;;;;;4967769;28;20271;-67
2023/12/04 00:22:24;;;;;;;18.13;7.90;;;;;;;;;;4971627;28;20211;-67
2023/12/04 00:24:49;;;;;;;14.43;8.13;;;;;;;;;;4976586;28;20556;-67
2023/12/04 00:27:14;;;;;;;12.80;7.73;;;;;;;;;;4979132;28;20184;-67
2023/12/04 00:29:40;;;;;;;14.13;7.80;;;;;;;;;;4977457;28;20667;-67
2023/12/04 00:32:05;;;;;;;15.30;8.50;;;;;;;;;;4971998;28;20181;-67
2023/12/04 00:34:30;;;;;;;14.33;7.07;;;;;;;;;;4975368;28;20207;-67
2023/12/04 00:36:55;;;;;;;13.57;7.63;;;;;;;;;;4975891;28;20173;-67
2023/12/04 00:39:20;;;;;;;14.67;7.93;;;;;;;;;;4977392;28;20179;-67
2023/12/04 00:41:46;;;;;;;15.60;8.73;;;;;;;;;;4976601;28;20191;-67
2023/12/04 00:44:11;;;;;;;17.23;7.73;;;;;;;;;;4976292;28;20214;-67
2023/12/04 00:46:36;;;;;;;13.23;7.43;;;;;;;;;;4974770;28;20176;-67
2023/12/04 00:49:01;;;;;;;15.23;9.10;;;;;;;;;;4975571;28;20576;-67
2023/12/04 00:51:26;;;;;;;15.10;7.90;;;;;;;;;;4968268;28;20179;-67
2023/12/04 00:53:52;;;;;;;15.17;8.20;;;;;;;;;;4969107;28;20236;-67
2023/12/04 00:56:18;;;;;;;15.63;8.93;;;;;;;;;;4974394;28;20180;-67
2023/12/04 00:58:43;;;;;;;15.33;7.93;;;;;;;;;;4975797;28;20181;-67
2023/12/04 01:01:09;;;;;;;14.23;8.40;;;;;;;;;;4976759;28;20192;-67
2023/12/04 01:03:34;;;;;;;15.40;8.43;;;;;;;;;;4975567;28;20216;-67
2023/12/04 01:05:59;;;;;;;14.97;8.40;;;;;;;;;;4973785;28;20600;-67
2023/12/04 01:08:24;;;;;;;17.73;8.43;;;;;;;;;;4977427;28;20212;-67
2023/12/04 01:10:49;;;;;;;17.27;8.13;;;;;;;;;;4967497;28;20188;-67
2023/12/04 01:13:15;;;;;;;13.60;7.43;;;;;;;;;;4972525;28;20199;-67
2023/12/04 01:15:40;;;;;;;13.30;8.03;;;;;;;;;;4977826;28;20267;-67
2023/12/04 01:18:05;;;;;;;15.73;7.60;;;;;;;;;;4977349;28;20551;-67
2023/12/04 01:20:33;;;;;;;17.47;9.20;;;;;;;;;;4975412;28;20191;-67
2023/12/04 01:22:58;;;;;;;14.20;8.13;;;;;;;;;;4975130;28;20210;-67
2023/12/04 01:25:23;;;;;;;14.23;8.20;;;;;;;;;;4976255;28;20197;-67
2023/12/04 01:27:48;;;;;;;15.47;7.93;;;;;;;;;;4970846;28;20196;-67
2023/12/04 01:30:13;;;;;;;14.00;7.70;;;;;;;;;;4963914;28;20180;-67
2023/12/04 01:32:39;;;;;;;14.63;8.03;;;;;;;;;;4974911;28;20176;-67
2023/12/04 01:35:04;;;;;;;17.20;7.53;;;;;;;;;;4974526;28;20611;-65
2023/12/04 01:37:29;;;;;;;15.33;7.47;;;;;;;;;;4975561;28;20187;-66
2023/12/04 01:39:55;;;;;;;16.20;8.00;;;;;;;;;;4975106;28;20255;-66
2023/12/04 01:42:20;;;;;;;15.80;7.83;;;;;;;;;;4971693;28;20785;-66
2023/12/04 01:44:45;;;;;;;13.10;6.63;;;;;;;;;;4964864;28;20200;-66
2023/12/04 01:47:11;;;;;;;12.80;7.70;;;;;;;;;;4971092;28;20534;-66
2023/12/04 01:49:36;;;;;;;13.50;7.07;;;;;;;;;;4973878;28;20215;-66
2023/12/04 01:52:01;;;;;;;15.93;8.60;;;;;;;;;;4975693;28;20173;-66
2023/12/04 01:54:27;;;;;;;15.30;8.13;;;;;;;;;;4972534;28;20196;-66
2023/12/04 01:56:52;;;;;;;15.63;7.63;;;;;;;;;;4974725;28;20183;-66
2023/12/04 01:59:17;;;;;;;12.40;6.93;;;;;;;;;;4979735;28;20219;-66
2023/12/04 02:01:42;;;;;;;12.70;6.67;;;;;;;;;;4974123;28;20555;-66
2023/12/04 02:06:35;;;;;;;17.27;7.73;;;;;;;;;;4987710;28;21037;-67
2023/12/04 02:09:01;;;;;;;14.07;7.97;;;;;;;;;;4993160;28;20246;-66
2023/12/04 02:11:26;;;;;;;12.33;7.27;;;;;;;;;;4992940;28;20172;-66
2023/12/04 02:13:51;;;;;;;12.03;7.37;;;;;;;;;;4992954;28;20298;-66
2023/12/04 02:16:18;;;;;;;12.53;7.17;;;;;;;;;;4992540;28;20176;-66
2023/12/04 02:18:44;;;;;;;11.33;7.50;;;;;;;;;;4991696;28;20655;-66
2023/12/04 02:21:09;;;;;;;14.00;7.77;;;;;;;;;;4982929;28;20246;-66
2023/12/04 02:23:34;;;;;;;15.83;7.73;;;;;;;;;;4989996;28;20211;-65
2023/12/04 02:26:01;;;;;;;13.93;7.23;;;;;;;;;;4991536;28;20580;-66
2023/12/04 02:28:28;;;;;;;15.17;7.37;;;;;;;;;;4990245;28;20284;-65
2023/12/04 02:30:54;;;;;;;15.20;7.80;;;;;;;;;;4985219;28;20180;-66
2023/12/04 02:33:21;;;;;;;13.37;6.63;;;;;;;;;;4987594;28;20675;-66
2023/12/04 02:35:47;;;;;;;14.20;7.87;;;;;;;;;;4991673;28;20555;-66
2023/12/04 02:38:13;;;;;;;12.53;6.83;;;;;;;;;;4988499;28;20270;-66
2023/12/04 02:40:39;;;;;;;15.13;8.00;;;;;;;;;;4991428;28;20191;-67
2023/12/04 02:43:04;;;;;;;15.43;7.77;;;;;;;;;;4991579;28;20207;-66
2023/12/04 02:45:29;;;;;;;14.50;7.63;;;;;;;;;;4981889;28;20198;-67
2023/12/04 02:47:54;;;;;;;14.80;7.07;;;;;;;;;;4988830;28;20203;-66
2023/12/04 02:50:19;;;;;;;16.40;8.23;;;;;;;;;;4990144;28;20190;-66
2023/12/04 02:52:45;;;;;;;17.47;8.40;;;;;;;;;;4989504;28;20175;-66
2023/12/04 02:55:10;;;;;;;16.50;7.67;;;;;;;;;;5005047;28;20590;-67
2023/12/04 02:57:35;;;;;;;11.90;7.03;;;;;;;;;;4987903;28;20180;-67
2023/12/04 03:00:00;;;;;;;14.23;7.90;;;;;;;;;;4990472;28;20172;-67
2023/12/04 03:02:25;;;;;;;12.90;6.90;;;;;;;;;;4990253;28;20222;-66
2023/12/04 03:04:50;;;;;;;14.10;7.80;;;;;;;;;;4984700;28;20710;-66
2023/12/04 03:07:16;;;;;;;12.97;6.60;;;;;;;;;;4988023;28;20180;-66
2023/12/04 03:09:41;;;;;;;14.20;8.17;;;;;;;;;;4990131;28;20208;-68
2023/12/04 03:12:06;;;;;;;12.80;7.13;;;;;;;;;;4990713;28;20175;-67
2023/12/04 03:14:32;;;;;;;13.87;7.53;;;;;;;;;;4990175;28;20220;-67
2023/12/04 03:16:57;;;;;;;14.93;7.70;;;;;;;;;;4990622;28;20219;-66
2023/12/04 03:19:22;;;;;;;15.13;8.23;;;;;;;;;;4990362;28;20191;-66
2023/12/04 03:21:47;;;;;;;15.50;8.60;;;;;;;;;;4989266;28;20293;-66
2023/12/04 03:24:12;;;;;;;13.23;8.13;;;;;;;;;;4980487;28;20200;-67
2023/12/04 03:26:38;;;;;;;13.07;7.30;;;;;;;;;;4986977;28;20230;-66
2023/12/04 03:29:03;;;;;;;12.30;7.10;;;;;;;;;;4991379;28;20241;-66
2023/12/04 03:31:28;;;;;;;14.20;7.60;;;;;;;;;;4990269;28;20557;-66
2023/12/04 03:33:53;;;;;;;14.93;7.90;;;;;;;;;;4990560;28;20580;-66
2023/12/04 03:36:19;;;;;;;14.20;7.87;;;;;;;;;;4991696;28;20191;-66
2023/12/04 03:38:44;;;;;;;15.13;7.80;;;;;;;;;;4984737;28;20188;-66
2023/12/04 03:41:16;;;;;;;13.00;6.83;;;;;;;;;;4981229;28;20194;-67
2023/12/04 03:43:41;;;;;;;15.07;7.57;;;;;;;;;;4981020;28;20262;-66
2023/12/04 03:46:06;;;;;;;15.40;7.80;;;;;;;;;;4978566;28;20184;-66
2023/12/04 03:48:32;;;;;;;13.60;6.53;;;;;;;;;;4986579;28;20616;-67
2023/12/04 03:50:57;;;;;;;15.43;7.77;;;;;;;;;;4990103;28;20182;-67
2023/12/04 03:53:22;;;;;;;14.67;7.40;;;;;;;;;;5002860;28;20206;-67
2023/12/04 03:55:47;;;;;;;15.83;7.97;;;;;;;;;;4985878;28;20171;-67
2023/12/04 03:58:12;;;;;;;16.10;7.90;;;;;;;;;;4988198;28;20190;-67
2023/12/04 04:00:41;;;;;;;16.17;7.77;;;;;;;;;;4989179;28;20665;-67
2023/12/04 04:03:06;;;;;;;16.63;8.50;;;;;;;;;;4990456;28;20203;-67
2023/12/04 04:05:34;;;;;;;13.93;7.57;;;;;;;;;;4980997;28;20195;-67
2023/12/04 04:07:59;;;;;;;15.80;7.20;;;;;;;;;;4985528;28;20200;-68
2023/12/04 04:10:24;;;;;;;11.87;6.87;;;;;;;;;;4982084;28;20211;-67
2023/12/04 04:12:49;;;;;;;19.47;7.23;;;;;;;;;;4991144;28;20179;-67
2023/12/04 04:15:15;;;;;;;14.33;7.17;;;;;;;;;;4989440;28;20647;-67
2023/12/04 04:17:40;;;;;;;11.60;6.43;;;;;;;;;;4984686;28;20263;-67
2023/12/04 04:20:06;;;;;;;16.13;8.33;;;;;;;;;;4990184;28;20176;-66
2023/12/04 04:22:34;;;;;;;12.90;6.83;;;;;;;;;;4990573;28;20180;-66
2023/12/04 04:24:59;;;;;;;12.63;7.00;;;;;;;;;;4983748;28;20686;-66
2023/12/04 04:27:24;;;;;;;12.63;6.83;;;;;;;;;;4981426;28;20196;-66
2023/12/04 04:29:49;;;;;;;11.40;7.20;;;;;;;;;;4990202;28;20176;-66
2023/12/04 04:32:15;;;;;;;12.47;7.03;;;;;;;;;;4990226;28;20182;-66
2023/12/04 04:34:40;;;;;;;12.70;7.83;;;;;;;;;;4988443;28;20196;-66
2023/12/04 04:37:05;;;;;;;13.87;7.00;;;;;;;;;;4988290;28;20595;-66
2023/12/04 04:39:30;;;;;;;14.23;7.00;;;;;;;;;;4988520;28;20188;-66
2023/12/04 04:41:55;;;;;;;15.10;7.87;;;;;;;;;;4982230;28;20230;-66
2023/12/04 04:44:21;;;;;;;13.03;6.43;;;;;;;;;;4980618;28;20204;-66
2023/12/04 04:46:46;;;;;;;15.97;8.03;;;;;;;;;;4984689;28;20240;-66
2023/12/04 04:49:11;;;;;;;11.10;6.77;;;;;;;;;;4983774;28;20326;-66
2023/12/04 04:51:36;;;;;;;17.77;8.40;;;;;;;;;;4988922;28;20207;-66
2023/12/04 04:54:01;;;;;;;12.43;7.80;;;;;;;;;;4984892;28;20737;-66
2023/12/04 04:56:27;;;;;;;13.17;6.83;;;;;;;;;;4982160;28;20176;-66
2023/12/04 04:58:52;;;;;;;13.17;7.27;;;;;;;;;;4990187;28;20187;-66
2023/12/04 05:01:17;;;;;;;13.10;6.60;;;;;;;;;;4988309;28;20180;-66
2023/12/04 05:03:42;;;;;;;16.70;7.70;;;;;;;;;;4981514;28;21299;-66
2023/12/04 05:06:08;;;;;;;10.53;6.20;;;;;;;;;;4990629;28;20187;-66
2023/12/04 05:08:33;;;;;;;13.30;7.40;;;;;;;;;;4992111;28;20235;-66
2023/12/04 05:10:58;;;;;;;13.47;6.90;;;;;;;;;;4992082;28;20322;-66
2023/12/04 05:13:23;;;;;;;15.30;7.27;;;;;;;;;;4990949;28;20202;-66
2023/12/04 05:15:49;;;;;;;13.13;7.93;;;;;;;;;;4989662;28;20259;-66
2023/12/04 05:18:14;;;;;;;14.00;6.87;;;;;;;;;;4989643;28;20191;-66
2023/12/04 05:20:39;;;;;;;15.50;7.67;;;;;;;;;;4994640;28;20225;-66
2023/12/04 05:23:04;;;;;;;12.93;7.37;;;;;;;;;;5000403;28;20293;-66
2023/12/04 05:25:29;;;;;;;14.43;7.07;;;;;;;;;;4987129;28;20562;-66
2023/12/04 05:27:55;;;;;;;15.67;8.87;;;;;;;;;;4993427;28;20191;-66
2023/12/04 05:30:20;;;;;;;13.53;7.57;;;;;;;;;;4992376;28;20211;-66
2023/12/04 05:32:45;;;;;;;12.80;7.23;;;;;;;;;;4993575;28;20655;-66
2023/12/04 05:35:10;;;;;;;10.50;6.80;;;;;;;;;;4991537;28;20182;-66
2023/12/04 05:37:35;;;;;;;17.43;7.77;;;;;;;;;;4992609;28;20262;-66
2023/12/04 05:40:01;;;;;;;11.53;6.80;;;;;;;;;;4986466;28;20186;-66
2023/12/04 05:42:26;;;;;;;13.03;7.53;;;;;;;;;;4989264;28;20183;-66
2023/12/04 05:44:55;;;;;;;14.50;7.83;;;;;;;;;;4992247;28;20202;-66
2023/12/04 05:47:20;;;;;;;13.73;7.50;;;;;;;;;;4995634;28;20211;-66
2023/12/04 05:49:45;;;;;;;12.63;6.77;;;;;;;;;;5001869;28;21088;-66
2023/12/04 05:52:10;;;;;;;13.83;7.30;;;;;;;;;;5005036;28;20200;-66
2023/12/04 05:54:36;;;;;;;11.03;6.97;;;;;;;;;;5008990;28;20227;-67
2023/12/04 05:57:01;;;;;;;13.70;6.13;;;;;;;;;;5001141;28;20631;-67
2023/12/04 05:59:26;;;;;;;14.93;7.07;;;;;;;;;;4995944;28;20179;-67
2023/12/04 06:01:51;;;;;;;12.50;7.00;;;;;;;;;;4996067;28;20175;-67
2023/12/04 06:04:17;;;;;;;10.70;6.80;;;;;;;;;;4996696;28;20691;-66
2023/12/04 06:06:42;;;;;;;14.70;7.80;;;;;;;;;;4991710;28;20227;-67
2023/12/04 06:09:08;;;;;;;11.57;6.37;;;;;;;;;;4989330;28;20200;-66
2023/12/04 06:11:33;;;;;;;12.23;6.83;;;;;;;;;;4989193;28;20184;-66
2023/12/04 06:13:58;;;;;;;13.30;7.17;;;;;;;;;;4993677;28;20286;-66
2023/12/04 06:16:23;;;;;;;11.87;7.20;;;;;;;;;;4983100;28;20230;-66
2023/12/04 06:18:48;;;;;;;13.30;6.50;;;;;;;;;;4986543;28;20179;-66
2023/12/04 06:21:14;;;;;;;11.17;6.00;;;;;;;;;;4996313;28;20195;-66
2023/12/04 06:23:39;;;;;;;12.73;6.77;;;;;;;;;;4992430;28;20306;-66
2023/12/04 06:26:05;;;;;;;13.50;6.53;;;;;;;;;;4991722;28;20176;-67
2023/12/04 06:28:30;;;;;;;10.20;6.53;;;;;;;;;;4985315;28;20215;-67
2023/12/04 06:30:56;;;;;;;17.70;7.20;;;;;;;;;;4981083;28;20234;-66
2023/12/04 06:33:21;;;;;;;10.33;6.67;;;;;;;;;;4993273;28;20262;-66
2023/12/04 06:35:46;;;;;;;11.77;6.73;;;;;;;;;;4990424;28;20268;-66
2023/12/04 06:38:14;;;;;;;12.03;6.50;;;;;;;;;;4992796;28;20206;-66
2023/12/04 06:40:39;;;;;;;16.43;7.23;;;;;;;;;;4988102;28;20628;-66
2023/12/04 06:43:04;;;;;;;11.07;7.20;;;;;;;;;;4987113;28;20217;-66
2023/12/04 06:45:32;;;;;;;12.60;6.77;;;;;;;;;;4987694;28;20189;-66
2023/12/04 06:47:57;;;;;;;13.93;7.40;;;;;;;;;;4983614;28;20192;-67
2023/12/04 06:50:23;;;;;;;12.33;7.50;;;;;;;;;;4988508;28;20231;-67
2023/12/04 06:52:48;;;;;;;10.73;6.97;;;;;;;;;;4992018;28;20226;-67
2023/12/04 06:55:13;;;;;;;13.07;6.60;;;;;;;;;;4990919;28;20175;-66
2023/12/04 06:57:38;;;;;;;9.30;6.53;;;;;;;;;;4989095;28;20199;-67
2023/12/04 07:00:04;;;;;;;11.50;6.87;;;;;;;;;;4990367;28;20172;-68
2023/12/04 07:02:29;;;;;;;13.60;6.50;;;;;;;;;;4983862;28;20184;-67
2023/12/04 07:04:55;;;;;;;9.73;5.90;;;;;;;;;;4991815;28;20242;-66
2023/12/04 07:07:20;;;;;;;10.53;6.70;;;;;;;;;;4991393;28;20317;-67
2023/12/04 07:09:45;;;;;;;10.40;6.47;;;;;;;;;;4989798;28;20771;-67
2023/12/04 07:12:11;;;;;;;12.73;7.50;;;;;;;;;;4986509;28;20727;-67
2023/12/04 07:14:36;;;;;;;10.37;7.00;;;;;;;;;;4987626;28;20205;-67
2023/12/04 07:17:01;;;;;;;9.37;6.33;;;;;;;;;;4978221;28;20184;-67
2023/12/04 07:19:26;;;;;;;11.87;6.37;;;;;;;;;;4990608;28;20266;-67
2023/12/04 07:21:52;;;;;;;9.93;5.70;;;;;;;;;;4989964;28;20651;-66
2023/12/04 07:24:17;;;;;;;11.87;6.47;;;;;;;;;;4986393;28;20210;-66
2023/12/04 07:26:43;;;;;;;12.70;7.20;;;;;;;;;;4990033;28;20179;-66
2023/12/04 07:29:08;;;;;;;13.33;6.57;;;;;;;;;;4991522;28;20294;-67
2023/12/04 07:31:33;;;;;;;12.73;7.30;;;;;;;;;;4991637;28;20178;-66
2023/12/04 07:34:00;;;;;;;12.80;7.07;;;;;;;;;;4984647;28;20195;-65
2023/12/04 07:36:26;;;;;;;14.90;7.00;;;;;;;;;;4981067;28;20237;-66
2023/12/04 07:38:53;;;;;;;9.30;6.13;;;;;;;;;;4991844;28;20588;-66
2023/12/04 07:41:18;;;;;;;11.30;6.40;;;;;;;;;;4991801;28;20179;-66
2023/12/04 07:43:44;;;;;;;13.63;7.23;;;;;;;;;;4991624;28;20204;-66
2023/12/04 07:46:10;;;;;;;8.70;6.07;;;;;;;;;;4990813;28;20496;-66
2023/12/04 07:48:35;;;;;;;10.47;5.97;;;;;;;;;;4981536;28;20230;-66
2023/12/04 07:51:00;;;;;;;9.20;6.17;;;;;;;;;;4985623;28;20210;-66
2023/12/04 07:53:25;;;;;;;11.27;5.87;;;;;;;;;;4992338;28;20682;-66
2023/12/04 07:55:51;;;;;;;9.70;6.07;;;;;;;;;;4988198;28;20202;-66
2023/12/04 07:58:16;;;;;;;9.90;6.23;;;;;;;;;;4986871;28;20175;-66
2023/12/04 08:00:42;;;;;;;10.67;6.83;;;;;;;;;;4991315;28;20306;-66
2023/12/04 08:03:07;;;;;;;10.63;6.57;;;;;;;;;;4989493;28;20203;-66
2023/12/04 08:05:32;;;;;;;8.77;5.50;;;;;;;;;;5001703;22;20231;-67
2023/12/04 08:07:57;;;;;;;9.70;6.10;;;;;;;;;;4987624;28;20203;-63
2023/12/04 08:10:22;;;;;;;9.93;6.30;;;;;;;;;;4991756;28;20195;-66
2023/12/04 08:12:48;;;;;;;9.70;5.93;;;;;;;;;;4993127;28;20175;-65
2023/12/04 08:15:13;;;;;;;9.03;6.13;;;;;;;;;;4994304;28;20226;-65
2023/12/04 08:17:38;;;;;;;11.27;6.23;;;;;;;;;;4993950;28;20175;-65
2023/12/04 08:20:04;;;;;;;11.93;5.80;;;;;;;;;;4997649;28;20178;-66
2023/12/04 08:22:29;;;;;;;11.33;6.07;;;;;;;;;;4996801;28;20553;-66
2023/12/04 08:24:54;;;;;;;8.93;6.00;;;;;;;;;;4984215;28;20200;-65
2023/12/04 08:27:19;;;;;;;8.43;5.70;;;;;;;;;;4988746;28;20643;-66
2023/12/04 08:29:45;;;;;;;8.93;4.53;;;;;;;;;;4994737;28;20673;-66
2023/12/04 08:32:10;;;;;;;10.63;5.50;;;;;;;;;;4992102;28;20183;-65
2023/12/04 08:34:35;;;;;;;7.80;4.90;;;;;;;;;;4996776;28;20285;-65
2023/12/04 08:37:00;;;;;;;8.00;5.17;;;;;;;;;;4991033;28;20183;-66
2023/12/04 08:39:26;;;;;;;9.60;5.23;;;;;;;;;;4999324;28;20180;-66
2023/12/04 08:41:51;;;;;;;8.53;5.20;;;;;;;;;;4991450;28;20183;-66
2023/12/04 08:44:17;;;;;;;8.40;5.10;;;;;;;;;;4992479;28;20168;-67
2023/12/04 08:46:43;;;;;;;9.33;4.77;;;;;;;;;;4996600;28;20548;-66
2023/12/04 08:49:08;;;;;;;9.57;5.17;;;;;;;;;;4990225;28;20706;-66
2023/12/04 08:51:34;;;;;;;8.13;4.90;;;;;;;;;;4998739;28;20178;-66
2023/12/04 08:53:59;;;;;;;9.40;5.33;;;;;;;;;;4994788;28;20218;-67
2023/12/04 08:56:24;;;;;;;6.67;4.73;;;;;;;;;;4995833;28;20592;-67
2023/12/04 08:58:50;;;;;;;7.80;4.93;;;;;;;;;;4999679;28;20254;-67
2023/12/04 09:01:15;;;;;;;7.27;4.90;;;;;;;;;;4999458;28;20659;-67
2023/12/04 09:03:40;;;;;;;7.70;4.50;;;;;;;;;;5001775;28;20257;-67
2023/12/04 09:06:06;;;;;;;6.33;4.40;;;;;;;;;;4999580;28;20258;-67
2023/12/04 09:08:32;;;;;;;10.53;4.97;;;;;;;;;;5000125;28;20214;-66
2023/12/04 09:10:57;;;;;;;8.53;4.63;;;;;;;;;;4995801;28;20187;-67
2023/12/04 09:13:23;;;;;;;9.23;5.23;;;;;;;;;;5001812;28;20179;-66
2023/12/04 09:15:48;;;;;;;8.47;4.77;;;;;;;;;;4999770;28;20735;-67
2023/12/04 09:18:13;;;;;;;7.53;4.80;;;;;;;;;;4999109;28;20335;-67
2023/12/04 09:20:38;;;;;;;6.70;4.23;;;;;;;;;;5003183;28;20183;-67
2023/12/04 09:23:03;;;;;;;7.90;4.50;;;;;;;;;;5000718;28;20182;-67
2023/12/04 09:25:29;;;;;;;7.03;4.90;;;;;;;;;;5001674;28;20287;-66
2023/12/04 09:27:54;;;;;;;7.90;4.57;;;;;;;;;;4996221;28;20222;-67
2023/12/04 09:30:19;;;;;;;6.67;4.30;;;;;;;;;;4996506;28;20549;-67
2023/12/04 09:32:44;;;;;;;9.13;5.17;;;;;;;;;;5001580;28;20191;-67
2023/12/04 09:35:10;;;;;;;8.90;4.83;;;;;;;;;;4999802;28;20195;-67
2023/12/04 09:37:35;;;;;;;7.33;4.40;;;;;;;;;;5003495;28;20182;-67
2023/12/04 09:40:00;;;;;;;11.07;4.47;;;;;;;;;;5000557;28;20264;-66
2023/12/04 09:42:26;;;;;;;7.40;4.50;;;;;;;;;;4994959;28;20188;-67
2023/12/04 09:44:52;;;;;;;8.10;4.60;;;;;;;;;;5000132;28;20199;-66
2023/12/04 09:47:17;;;;;;;7.17;4.10;;;;;;;;;;5003314;28;20199;-67
2023/12/04 09:49:43;;;;;;;7.33;4.83;;;;;;;;;;4995610;28;20573;-66
2023/12/04 09:52:08;;;;;;;8.00;4.80;;;;;;;;;;4996444;28;20171;-67
2023/12/04 09:54:36;;;;;;;8.47;4.03;;;;;;;;;;4995818;28;20211;-66
2023/12/04 09:57:01;;;;;;;7.37;4.60;;;;;;;;;;5002515;28;20175;-66
2023/12/04 09:59:29;;;;;;;7.40;4.20;;;;;;;;;;4999895;28;20195;-67
2023/12/04 10:01:54;;;;;;;8.50;4.70;;;;;;;;;;5003813;28;20179;-66
2023/12/04 10:04:19;;;;;;;7.67;4.77;;;;;;;;;;4995054;28;20192;-66
2023/12/04 10:06:45;;;;;;;8.60;4.03;;;;;;;;;;5006864;28;20241;-66
2023/12/04 10:09:13;;;;;;;7.20;4.67;;;;;;;;;;4984181;28;20242;-67
2023/12/04 10:11:41;;;;;;;8.50;4.83;;;;;;;;;;4996195;28;20262;-66
2023/12/04 10:14:13;;;;;;;6.10;4.47;;;;;;;;;;4996442;28;20175;-67
2023/12/04 10:16:38;;;;;;;7.10;5.10;;;;;;;;;;4998957;28;20182;-66
2023/12/04 10:19:17;;;;;;;8.73;5.13;;;;;;;;;;5001308;28;20194;-66
2023/12/04 10:21:43;;;;;;;7.73;4.10;;;;;;;;;;4996858;28;20312;-66
2023/12/04 10:24:09;;;;;;;9.90;4.80;;;;;;;;;;4998844;28;20211;-66
2023/12/04 10:26:34;;;;;;;8.23;4.90;;;;;;;;;;5005608;28;20276;-67
2023/12/04 10:29:00;;;;;;;8.23;4.80;;;;;;;;;;4987496;28;20227;-65
2023/12/04 10:31:25;;;;;;;5.63;4.20;;;;;;;;;;4997966;28;20613;-66
2023/12/04 10:33:51;;;;;;;8.77;4.07;;;;;;;;;;5000484;28;20258;-66
2023/12/04 10:36:17;;;;;;;8.30;4.90;;;;;;;;;;4988354;28;20206;-66
2023/12/04 10:38:42;;;;;;;8.17;5.00;;;;;;;;;;4993878;28;20577;-66
2023/12/04 10:41:14;;;;;;;9.57;4.70;;;;;;;;;;4999352;28;20168;-66
2023/12/04 10:43:46;;;;;;;7.30;4.70;;;;;;;;;;4974865;28;20195;-67
2023/12/04 10:46:12;;;;;;;7.33;4.30;;;;;;;;;;4991778;28;20250;-66
2023/12/04 10:48:37;;;;;;;7.63;4.70;;;;;;;;;;5000249;28;20198;-66
2023/12/04 10:51:05;;;;;;;9.10;5.07;;;;;;;;;;4991842;28;20591;-67
2023/12/04 10:53:30;;;;;;;7.83;4.27;;;;;;;;;;4981683;28;20176;-66
2023/12/04 10:55:56;;;;;;;9.50;5.40;;;;;;;;;;4992328;28;20261;-66
2023/12/04 10:58:25;;;;;;;9.53;5.83;;;;;;;;;;5003813;28;20616;-67
2023/12/04 11:00:50;;;;;;;7.83;4.77;;;;;;;;;;4999383;28;20187;-66
2023/12/04 11:03:20;;;;;;;6.93;4.77;;;;;;;;;;4993694;28;20242;-67
2023/12/04 11:05:48;;;;;;;7.83;4.63;;;;;;;;;;4986292;28;20218;-67
2023/12/04 11:08:16;;;;;;;9.63;5.63;;;;;;;;;;4993919;28;20691;-66
2023/12/04 11:10:44;;;;;;;8.63;5.03;;;;;;;;;;5003090;28;20238;-67
2023/12/04 11:13:12;;;;;;;8.87;4.93;;;;;;;;;;4999494;28;20206;-66
2023/12/04 11:15:40;;;;;;;9.70;5.20;;;;;;;;;;4993319;28;20629;-67
2023/12/04 11:18:06;;;;;;;8.23;5.10;;;;;;;;;;4989995;28;20262;-65
2023/12/04 11:20:35;;;;;;;7.67;5.03;;;;;;;;;;4987069;28;20209;-66
2023/12/04 11:23:01;;;;;;;7.73;5.27;;;;;;;;;;4992029;28;20184;-67
2023/12/04 11:25:28;;;;;;;9.30;5.10;;;;;;;;;;4988760;28;20203;-67
2023/12/04 11:27:54;;;;;;;8.07;5.17;;;;;;;;;;5000455;28;20191;-66
2023/12/04 11:30:19;;;;;;;8.23;5.03;;;;;;;;;;4999032;28;20175;-67
2023/12/04 11:32:46;;;;;;;7.53;4.47;;;;;;;;;;4996946;28;20191;-67
2023/12/04 11:35:14;;;;;;;8.97;5.80;;;;;;;;;;4997843;28;20797;-67
2023/12/04 11:37:40;;;;;;;7.93;5.13;;;;;;;;;;4995831;28;20190;-65
2023/12/04 11:40:07;;;;;;;8.33;5.07;;;;;;;;;;5001708;28;20175;-66
2023/12/04 11:42:33;;;;;;;10.17;6.63;;;;;;;;;;5000305;28;20179;-66
2023/12/04 11:44:58;;;;;;;9.00;5.87;;;;;;;;;;5004400;28;20305;-66
2023/12/04 11:47:24;;;;;;;8.00;5.77;;;;;;;;;;4989087;28;20670;-66
2023/12/04 11:49:49;;;;;;;9.43;6.00;;;;;;;;;;5000101;28;20257;-66
2023/12/04 11:52:14;;;;;;;9.27;5.40;;;;;;;;;;5000156;28;20207;-65
2023/12/04 11:55:05;;;;;;;10.00;5.50;;;;;;;;;;4988325;28;20763;-66
2023/12/04 11:57:36;;;;;;;7.60;5.17;;;;;;;;;;5000424;28;20175;-66
2023/12/04 12:00:18;;;;;;;8.80;5.73;;;;;;;;;;5000116;28;20198;-67
2023/12/04 12:02:52;;;;;;;9.47;6.10;;;;;;;;;;4993507;28;20179;-66
2023/12/04 12:05:19;;;;;;;9.93;6.17;;;;;;;;;;4995779;28;20209;-66
2023/12/04 12:07:44;;;;;;;9.33;5.67;;;;;;;;;;5002033;28;20663;-66
2023/12/04 12:10:10;;;;;;;10.73;6.47;;;;;;;;;;4994630;28;20186;-67
2023/12/04 12:12:36;;;;;;;9.67;6.70;;;;;;;;;;5001130;28;20178;-66
2023/12/04 12:15:01;;;;;;;9.00;6.43;;;;;;;;;;5001406;28;20198;-67
2023/12/04 12:17:27;;;;;;;11.80;7.00;;;;;;;;;;4969386;28;20259;-66
2023/12/04 12:19:52;;;;;;;8.50;6.00;;;;;;;;;;4993316;28;20199;-66
2023/12/04 12:22:17;;;;;;;9.27;5.70;;;;;;;;;;4995831;28;20186;-67
2023/12/04 12:24:43;;;;;;;9.73;6.63;;;;;;;;;;4997679;28;20226;-67
2023/12/04 12:27:08;;;;;;;11.57;6.03;;;;;;;;;;4997986;28;20552;-66
2023/12/04 12:29:33;;;;;;;11.97;6.87;;;;;;;;;;5000086;28;20693;-66
2023/12/04 12:31:58;;;;;;;7.90;5.90;;;;;;;;;;4993803;28;20227;-67
2023/12/04 12:34:23;;;;;;;11.50;6.40;;;;;;;;;;5000232;28;20249;-66
2023/12/04 12:36:49;;;;;;;11.90;7.37;;;;;;;;;;4992367;28;20190;-66
2023/12/04 12:39:15;;;;;;;9.13;6.20;;;;;;;;;;4991768;28;20191;-67
2023/12/04 12:41:46;;;;;;;9.10;6.30;;;;;;;;;;4997543;28;20229;-66
2023/12/04 12:44:11;;;;;;;11.63;6.90;;;;;;;;;;4996190;28;20226;-66
2023/12/04 12:46:40;;;;;;;9.30;6.37;;;;;;;;;;4992494;28;20245;-67
2023/12/04 12:49:05;;;;;;;10.93;6.47;;;;;;;;;;4981237;28;20234;-67
2023/12/04 12:51:30;;;;;;;11.40;5.80;;;;;;;;;;4982652;28;20639;-65
2023/12/04 12:53:56;;;;;;;11.10;6.13;;;;;;;;;;4989900;28;20168;-67
2023/12/04 12:56:22;;;;;;;9.30;6.27;;;;;;;;;;4987573;28;20234;-67
2023/12/04 12:58:47;;;;;;;9.33;6.50;;;;;;;;;;4994914;28;20621;-67
2023/12/04 13:01:12;;;;;;;12.70;7.20;;;;;;;;;;5003509;28;20206;-66
2023/12/04 13:03:37;;;;;;;11.80;6.87;;;;;;;;;;5000260;28;20560;-67
2023/12/04 13:06:03;;;;;;;10.90;7.30;;;;;;;;;;4995955;28;20598;-65
2023/12/04 13:08:28;;;;;;;12.67;7.20;;;;;;;;;;5001805;28;20251;-66
2023/12/04 13:10:53;;;;;;;11.67;7.03;;;;;;;;;;5004898;28;20179;-66
2023/12/04 13:13:19;;;;;;;12.43;7.17;;;;;;;;;;4988015;28;20194;-66
2023/12/04 13:15:44;;;;;;;11.20;7.07;;;;;;;;;;4987840;28;20207;-67
2023/12/04 13:18:09;;;;;;;11.90;7.03;;;;;;;;;;5001655;28;20192;-66
2023/12/04 13:20:35;;;;;;;10.10;7.10;;;;;;;;;;5003043;28;20187;-67
2023/12/04 13:23:00;;;;;;;10.83;6.73;;;;;;;;;;5001636;28;20913;-67
2023/12/04 13:25:25;;;;;;;12.67;7.53;;;;;;;;;;5002542;28;20203;-67
2023/12/04 13:27:51;;;;;;;12.37;7.13;;;;;;;;;;5004087;28;20191;-67
2023/12/04 13:30:16;;;;;;;11.40;7.43;;;;;;;;;;5003473;28;20179;-67
2023/12/04 13:32:41;;;;;;;14.40;8.70;;;;;;;;;;4995665;28;20186;-67
2023/12/04 13:35:11;;;;;;;14.23;8.53;;;;;;;;;;5000116;28;20294;-66
2023/12/04 13:37:38;;;;;;;11.67;7.33;;;;;;;;;;4997474;28;20628;-67
2023/12/04 13:40:06;;;;;;;14.63;8.60;;;;;;;;;;5004874;28;20226;-67
2023/12/04 13:45:16;;;;;;;13.13;8.10;;;;;;;;;;5004595;28;20287;-66
2023/12/04 13:47:41;;;;;;;13.70;7.70;;;;;;;;;;4993996;28;20274;-66
2023/12/04 13:50:08;;;;;;;13.03;8.20;;;;;;;;;;4991649;28;20310;-67
2023/12/04 13:52:34;;;;;;;14.13;7.83;;;;;;;;;;4992949;28;20179;-66
2023/12/04 13:55:00;;;;;;;12.03;7.63;;;;;;;;;;4994085;28;20223;-67
2023/12/04 13:57:32;;;;;;;14.63;8.03;;;;;;;;;;4996003;28;20267;-67
2023/12/04 13:59:58;;;;;;;12.60;8.27;;;;;;;;;;5001193;28;20187;-67
2023/12/04 14:02:23;;;;;;;17.23;8.07;;;;;;;;;;4999290;28;20241;-67
2023/12/04 14:04:48;;;;;;;11.93;7.47;;;;;;;;;;4996248;28;20647;-67
2023/12/04 14:07:14;;;;;;;15.73;8.27;;;;;;;;;;4995179;28;20179;-66
2023/12/04 14:09:39;;;;;;;12.93;7.80;;;;;;;;;;4998313;28;20369;-66
2023/12/04 14:12:05;;;;;;;12.30;8.17;;;;;;;;;;4984124;28;20180;-66
2023/12/04 14:14:30;;;;;;;10.10;7.03;;;;;;;;;;5004504;28;20171;-66
2023/12/04 14:16:55;;;;;;;12.60;7.40;;;;;;;;;;5000981;28;20714;-67
2023/12/04 14:19:21;;;;;;;12.60;7.60;;;;;;;;;;5002213;28;20171;-67
2023/12/04 14:21:48;;;;;;;12.97;6.97;;;;;;;;;;4990521;28;20174;-67
2023/12/04 14:24:13;;;;;;;14.23;7.93;;;;;;;;;;4997864;28;20218;-65
2023/12/04 14:26:38;;;;;;;16.00;8.23;;;;;;;;;;5008861;28;20194;-67
2023/12/04 14:29:03;;;;;;;13.03;7.80;;;;;;;;;;4991160;28;20288;-66